createdAt,value
2023-03-13T00:00:20.632Z,18.62
2023-03-13T00:00:52.025Z,18.62
2023-03-13T00:01:23.430Z,18.60
2023-03-13T00:01:54.892Z,18.59
2023-03-13T00:02:26.451Z,18.59
2023-03-13T00:02:57.933Z,18.59
2023-03-13T00:03:29.349Z,18.59
2023-03-13T00:04:00.767Z,18.58
2023-03-13T00:04:32.287Z,18.57
2023-03-13T00:05:03.740Z,18.57
2023-03-13T00:05:35.202Z,18.56
2023-03-13T00:06:06.594Z,18.55
2023-03-13T00:06:38.006Z,18.56
2023-03-13T00:07:09.430Z,18.56
2023-03-13T00:07:40.821Z,18.55
2023-03-13T00:08:12.243Z,18.52
2023-03-13T00:08:43.664Z,18.56
2023-03-13T00:09:15.059Z,18.54
2023-03-13T00:09:46.475Z,18.54
2023-03-13T00:10:17.885Z,18.54
2023-03-13T00:10:49.302Z,18.53
2023-03-13T00:11:20.701Z,18.55
2023-03-13T00:11:52.106Z,18.52
2023-03-13T00:12:23.518Z,18.52
2023-03-13T00:12:54.924Z,18.54
2023-03-13T00:13:26.314Z,18.54
2023-03-13T00:13:57.758Z,18.50
2023-03-13T00:14:29.179Z,18.54
2023-03-13T00:15:00.651Z,18.50
2023-03-13T00:15:32.078Z,18.50
2023-03-13T00:16:03.480Z,18.49
2023-03-13T00:16:34.922Z,18.50
2023-03-13T00:17:06.435Z,18.53
2023-03-13T00:17:37.855Z,18.48
2023-03-13T00:18:09.270Z,18.47
2023-03-13T00:18:40.666Z,18.47
2023-03-13T00:19:12.124Z,18.47
2023-03-13T00:19:43.536Z,18.46
2023-03-13T00:20:14.983Z,18.48
2023-03-13T00:20:46.386Z,18.47
2023-03-13T00:21:17.804Z,18.45
2023-03-13T00:21:49.219Z,18.45
2023-03-13T00:22:20.633Z,18.44
2023-03-13T00:22:52.026Z,18.44
2023-03-13T00:23:23.419Z,18.47
2023-03-13T00:23:54.832Z,18.44
2023-03-13T00:24:26.249Z,18.46
2023-03-13T00:24:57.660Z,18.44
2023-03-13T00:25:29.106Z,18.43
2023-03-13T00:26:00.511Z,18.41
2023-03-13T00:26:31.937Z,18.42
2023-03-13T00:27:03.396Z,18.41
2023-03-13T00:27:34.843Z,18.41
2023-03-13T00:28:06.236Z,18.41
2023-03-13T00:28:37.631Z,18.38
2023-03-13T00:29:09.036Z,18.40
2023-03-13T00:29:40.468Z,18.39
2023-03-13T00:30:11.897Z,18.41
2023-03-13T00:30:43.362Z,18.41
2023-03-13T00:31:14.897Z,18.38
2023-03-13T00:31:46.399Z,18.38
2023-03-13T00:32:17.936Z,18.37
2023-03-13T00:32:49.406Z,18.36
2023-03-13T00:33:20.819Z,18.36
2023-03-13T00:33:52.237Z,18.37
2023-03-13T00:34:23.687Z,18.38
2023-03-13T00:34:55.108Z,18.37
2023-03-13T00:35:26.571Z,18.36
2023-03-13T00:35:58.060Z,18.38
2023-03-13T00:36:29.460Z,18.35
2023-03-13T00:37:00.989Z,18.35
2023-03-13T00:37:32.405Z,18.33
2023-03-13T00:38:03.835Z,18.33
2023-03-13T00:38:35.271Z,18.35
2023-03-13T00:39:06.689Z,18.33
2023-03-13T00:39:38.112Z,18.32
2023-03-13T00:40:09.511Z,18.33
2023-03-13T00:40:40.925Z,18.31
2023-03-13T00:41:12.349Z,18.31
2023-03-13T00:41:43.770Z,18.31
2023-03-13T00:42:15.186Z,18.31
2023-03-13T00:42:46.590Z,18.31
2023-03-13T00:43:18.153Z,18.30
2023-03-13T00:43:49.567Z,18.29
2023-03-13T00:44:20.997Z,18.29
2023-03-13T00:44:52.416Z,18.29
2023-03-13T00:45:23.802Z,18.28
2023-03-13T00:45:55.201Z,18.31
2023-03-13T00:46:26.662Z,18.30
2023-03-13T00:46:58.156Z,18.28
2023-03-13T00:47:29.556Z,18.29
2023-03-13T00:48:00.967Z,18.28
2023-03-13T00:48:32.358Z,18.27
2023-03-13T00:49:03.768Z,18.27
2023-03-13T00:49:35.162Z,18.26
2023-03-13T00:50:06.619Z,18.27
2023-03-13T00:50:38.041Z,18.25
2023-03-13T00:51:09.452Z,18.27
2023-03-13T00:51:40.894Z,18.26
2023-03-13T00:52:12.314Z,18.24
2023-03-13T00:52:43.720Z,18.25
2023-03-13T00:53:15.117Z,18.25
2023-03-13T00:53:46.538Z,18.25
2023-03-13T00:54:17.967Z,18.26
2023-03-13T00:54:49.380Z,18.27
2023-03-13T00:55:20.823Z,18.25
2023-03-13T00:55:52.252Z,18.25
2023-03-13T00:56:23.656Z,18.21
2023-03-13T00:56:55.101Z,18.22
2023-03-13T00:57:26.514Z,18.20
2023-03-13T00:57:57.926Z,18.20
2023-03-13T00:58:29.343Z,18.19
2023-03-13T00:59:00.771Z,18.20
2023-03-13T00:59:32.168Z,18.17
2023-03-13T01:00:03.568Z,18.19
2023-03-13T01:00:34.983Z,18.17
2023-03-13T01:01:06.377Z,18.18
2023-03-13T01:01:37.794Z,18.22
2023-03-13T01:02:09.328Z,18.20
2023-03-13T01:02:40.964Z,18.22
2023-03-13T01:03:12.540Z,18.22
2023-03-13T01:03:43.994Z,18.19
2023-03-13T01:04:15.516Z,18.21
2023-03-13T01:04:46.920Z,18.23
2023-03-13T01:05:18.337Z,18.19
2023-03-13T01:05:49.818Z,18.19
2023-03-13T01:06:21.234Z,18.20
2023-03-13T01:06:52.637Z,18.22
2023-03-13T01:07:24.067Z,18.18
2023-03-13T01:07:55.487Z,18.17
2023-03-13T01:08:26.873Z,18.16
2023-03-13T01:08:58.317Z,18.17
2023-03-13T01:09:29.740Z,18.15
2023-03-13T01:10:01.170Z,18.14
2023-03-13T01:10:32.586Z,18.14
2023-03-13T01:11:04.036Z,18.14
2023-03-13T01:11:35.431Z,18.16
2023-03-13T01:12:06.847Z,18.16
2023-03-13T01:12:38.270Z,18.18
2023-03-13T01:13:09.664Z,18.19
2023-03-13T01:13:41.102Z,18.14
2023-03-13T01:14:12.515Z,18.16
2023-03-13T01:14:43.926Z,18.16
2023-03-13T01:15:15.333Z,18.18
2023-03-13T01:15:46.761Z,18.17
2023-03-13T01:16:18.356Z,18.13
2023-03-13T01:16:49.815Z,18.14
2023-03-13T01:17:21.226Z,18.15
2023-03-13T01:17:52.663Z,18.16
2023-03-13T01:18:24.076Z,18.14
2023-03-13T01:18:58.224Z,18.15
2023-03-13T01:19:29.629Z,18.15
2023-03-13T01:20:01.040Z,18.16
2023-03-13T01:20:32.455Z,18.16
2023-03-13T01:21:03.878Z,18.14
2023-03-13T01:21:35.293Z,18.11
2023-03-13T01:22:06.707Z,18.12
2023-03-13T01:22:38.106Z,18.11
2023-03-13T01:23:09.530Z,18.12
2023-03-13T01:23:40.956Z,18.10
2023-03-13T01:24:12.371Z,18.08
2023-03-13T01:24:43.757Z,18.08
2023-03-13T01:25:15.171Z,18.08
2023-03-13T01:25:46.568Z,18.06
2023-03-13T01:26:17.991Z,18.06
2023-03-13T01:26:49.410Z,18.06
2023-03-13T01:27:20.799Z,18.07
2023-03-13T01:27:52.217Z,18.04
2023-03-13T01:28:23.628Z,18.06
2023-03-13T01:28:55.089Z,18.08
2023-03-13T01:29:26.500Z,18.06
2023-03-13T01:29:57.896Z,18.06
2023-03-13T01:30:29.319Z,18.05
2023-03-13T01:31:00.767Z,18.03
2023-03-13T01:31:32.284Z,18.05
2023-03-13T01:32:03.787Z,18.02
2023-03-13T01:32:35.243Z,18.00
2023-03-13T01:33:06.685Z,18.03
2023-03-13T01:33:38.130Z,18.04
2023-03-13T01:34:09.530Z,18.04
2023-03-13T01:34:40.968Z,18.01
2023-03-13T01:35:12.367Z,18.03
2023-03-13T01:35:43.810Z,18.04
2023-03-13T01:36:15.218Z,18.06
2023-03-13T01:36:46.666Z,18.02
2023-03-13T01:37:18.064Z,18.04
2023-03-13T01:37:49.465Z,18.07
2023-03-13T01:38:20.882Z,18.06
2023-03-13T01:38:52.334Z,18.03
2023-03-13T01:39:23.752Z,18.05
2023-03-13T01:39:55.147Z,18.04
2023-03-13T01:40:26.548Z,18.04
2023-03-13T01:40:58.133Z,18.02
2023-03-13T01:41:29.553Z,18.01
2023-03-13T01:42:00.938Z,18.00
2023-03-13T01:42:32.348Z,17.99
2023-03-13T01:43:05.144Z,18.00
2023-03-13T01:43:37.637Z,17.99
2023-03-13T01:44:09.069Z,17.99
2023-03-13T01:44:40.461Z,17.99
2023-03-13T01:45:11.871Z,18.01
2023-03-13T01:45:43.262Z,18.01
2023-03-13T01:46:14.704Z,17.98
2023-03-13T01:46:46.259Z,17.98
2023-03-13T01:47:17.709Z,17.98
2023-03-13T01:47:49.098Z,17.99
2023-03-13T01:48:20.516Z,17.95
2023-03-13T01:48:51.936Z,17.98
2023-03-13T01:49:23.358Z,17.96
2023-03-13T01:49:54.774Z,17.95
2023-03-13T01:50:26.174Z,17.95
2023-03-13T01:50:57.571Z,17.96
2023-03-13T01:51:28.967Z,17.95
2023-03-13T01:52:00.387Z,17.95
2023-03-13T01:52:31.810Z,17.93
2023-03-13T01:53:03.234Z,17.94
2023-03-13T01:53:34.643Z,17.91
2023-03-13T01:54:06.105Z,17.91
2023-03-13T01:54:37.510Z,17.92
2023-03-13T01:55:09.037Z,17.95
2023-03-13T01:55:40.465Z,17.94
2023-03-13T01:56:11.869Z,17.92
2023-03-13T01:56:43.263Z,17.91
2023-03-13T01:57:14.654Z,17.92
2023-03-13T01:57:46.083Z,17.94
2023-03-13T01:58:17.511Z,17.94
2023-03-13T01:58:48.943Z,17.93
2023-03-13T01:59:20.376Z,17.91
2023-03-13T01:59:51.808Z,17.94
2023-03-13T02:00:23.214Z,17.91
2023-03-13T02:00:54.626Z,17.89
2023-03-13T02:01:26.082Z,17.92
2023-03-13T02:01:57.576Z,17.88
2023-03-13T02:02:29.057Z,17.89
2023-03-13T02:03:00.518Z,17.90
2023-03-13T02:03:31.949Z,17.90
2023-03-13T02:04:03.366Z,17.90
2023-03-13T02:04:34.800Z,17.88
2023-03-13T02:05:06.218Z,17.91
2023-03-13T02:05:37.632Z,17.87
2023-03-13T02:06:09.030Z,17.87
2023-03-13T02:06:40.418Z,17.85
2023-03-13T02:07:11.828Z,17.85
2023-03-13T02:07:43.231Z,17.86
2023-03-13T02:08:14.633Z,17.84
2023-03-13T02:08:46.046Z,17.85
2023-03-13T02:09:17.459Z,17.83
2023-03-13T02:09:48.874Z,17.83
2023-03-13T02:10:20.278Z,17.83
2023-03-13T02:10:51.674Z,17.84
2023-03-13T02:11:23.076Z,17.84
2023-03-13T02:11:54.492Z,17.80
2023-03-13T02:12:25.883Z,17.84
2023-03-13T02:12:57.271Z,17.80
2023-03-13T02:13:28.690Z,17.81
2023-03-13T02:14:00.117Z,17.82
2023-03-13T02:14:31.534Z,17.82
2023-03-13T02:15:02.966Z,17.78
2023-03-13T02:15:34.379Z,17.82
2023-03-13T02:16:05.810Z,17.83
2023-03-13T02:16:37.369Z,17.83
2023-03-13T02:17:08.773Z,17.81
2023-03-13T02:17:40.191Z,17.81
2023-03-13T02:18:11.620Z,17.80
2023-03-13T02:18:43.032Z,17.79
2023-03-13T02:19:14.440Z,17.80
2023-03-13T02:19:45.848Z,17.79
2023-03-13T02:20:17.331Z,17.77
2023-03-13T02:20:48.748Z,17.79
2023-03-13T02:21:20.185Z,17.75
2023-03-13T02:21:51.595Z,17.78
2023-03-13T02:22:22.988Z,17.77
2023-03-13T02:22:54.412Z,17.79
2023-03-13T02:23:25.816Z,17.78
2023-03-13T02:23:57.243Z,17.79
2023-03-13T02:24:28.643Z,17.79
2023-03-13T02:25:00.064Z,17.77
2023-03-13T02:25:31.498Z,17.74
2023-03-13T02:26:02.922Z,17.74
2023-03-13T02:26:34.338Z,17.76
2023-03-13T02:27:05.745Z,17.77
2023-03-13T02:27:37.149Z,17.75
2023-03-13T02:28:08.566Z,17.77
2023-03-13T02:28:39.979Z,17.75
2023-03-13T02:29:11.384Z,17.76
2023-03-13T02:29:42.809Z,17.77
2023-03-13T02:30:14.216Z,17.77
2023-03-13T02:30:45.681Z,17.73
2023-03-13T02:31:17.128Z,17.73
2023-03-13T02:31:48.654Z,17.72
2023-03-13T02:32:20.209Z,17.70
2023-03-13T02:32:51.716Z,17.69
2023-03-13T02:33:23.155Z,17.73
2023-03-13T02:33:54.552Z,17.69
2023-03-13T02:34:26.019Z,17.72
2023-03-13T02:34:57.432Z,17.72
2023-03-13T02:35:28.920Z,17.72
2023-03-13T02:36:00.478Z,17.69
2023-03-13T02:36:31.921Z,17.71
2023-03-13T02:37:03.318Z,17.69
2023-03-13T02:37:34.740Z,17.68
2023-03-13T02:38:06.137Z,17.70
2023-03-13T02:38:37.552Z,17.72
2023-03-13T02:39:08.954Z,17.69
2023-03-13T02:39:40.404Z,17.69
2023-03-13T02:40:11.810Z,17.70
2023-03-13T02:40:43.218Z,17.70
2023-03-13T02:41:14.627Z,17.69
2023-03-13T02:41:46.023Z,17.68
2023-03-13T02:42:17.428Z,17.69
2023-03-13T02:42:48.834Z,17.69
2023-03-13T02:43:20.226Z,17.70
2023-03-13T02:43:51.629Z,17.70
2023-03-13T02:44:23.043Z,17.69
2023-03-13T02:44:54.460Z,17.69
2023-03-13T02:45:25.856Z,17.71
2023-03-13T02:45:57.323Z,17.67
2023-03-13T02:46:28.825Z,17.70
2023-03-13T02:47:00.357Z,17.70
2023-03-13T02:47:31.794Z,17.68
2023-03-13T02:48:03.218Z,17.68
2023-03-13T02:48:34.616Z,17.67
2023-03-13T02:49:06.018Z,17.65
2023-03-13T02:49:37.430Z,17.65
2023-03-13T02:50:08.820Z,17.65
2023-03-13T02:50:40.233Z,17.65
2023-03-13T02:51:11.646Z,17.66
2023-03-13T02:51:43.055Z,17.66
2023-03-13T02:52:14.452Z,17.67
2023-03-13T02:52:45.867Z,17.64
2023-03-13T02:53:17.280Z,17.62
2023-03-13T02:53:48.700Z,17.62
2023-03-13T02:54:20.099Z,17.61
2023-03-13T02:54:51.511Z,17.62
2023-03-13T02:55:22.904Z,17.62
2023-03-13T02:55:54.362Z,17.63
2023-03-13T02:56:25.757Z,17.61
2023-03-13T02:56:57.189Z,17.60
2023-03-13T02:57:28.611Z,17.60
2023-03-13T02:58:00.039Z,17.60
2023-03-13T02:58:33.644Z,17.60
2023-03-13T02:59:07.014Z,17.61
2023-03-13T02:59:38.425Z,17.62
2023-03-13T03:00:09.833Z,17.63
2023-03-13T03:00:41.265Z,17.61
2023-03-13T03:01:12.769Z,17.61
2023-03-13T03:01:44.198Z,17.59
2023-03-13T03:02:15.590Z,17.58
2023-03-13T03:02:47.012Z,17.60
2023-03-13T03:03:18.413Z,17.57
2023-03-13T03:03:49.879Z,17.60
2023-03-13T03:04:21.368Z,17.59
2023-03-13T03:04:52.847Z,17.57
2023-03-13T03:05:24.282Z,17.58
2023-03-13T03:05:55.720Z,17.59
2023-03-13T03:06:27.138Z,17.59
2023-03-13T03:06:58.545Z,17.59
2023-03-13T03:07:29.972Z,17.60
2023-03-13T03:08:01.397Z,17.57
2023-03-13T03:08:32.868Z,17.58
2023-03-13T03:09:04.286Z,17.59
2023-03-13T03:09:35.690Z,17.56
2023-03-13T03:10:07.083Z,17.57
2023-03-13T03:10:38.500Z,17.57
2023-03-13T03:11:09.922Z,17.55
2023-03-13T03:11:41.312Z,17.55
2023-03-13T03:12:12.718Z,17.54
2023-03-13T03:12:44.106Z,17.54
2023-03-13T03:13:15.509Z,17.55
2023-03-13T03:13:46.891Z,17.54
2023-03-13T03:14:18.282Z,17.52
2023-03-13T03:14:49.711Z,17.53
2023-03-13T03:15:21.105Z,17.51
2023-03-13T03:15:52.520Z,17.52
2023-03-13T03:16:23.947Z,17.52
2023-03-13T03:16:55.370Z,17.53
2023-03-13T03:17:26.775Z,17.54
2023-03-13T03:17:58.174Z,17.53
2023-03-13T03:18:29.591Z,17.53
2023-03-13T03:19:00.990Z,17.53
2023-03-13T03:19:32.384Z,17.52
2023-03-13T03:20:03.781Z,17.52
2023-03-13T03:20:35.195Z,17.51
2023-03-13T03:21:06.742Z,17.52
2023-03-13T03:21:38.182Z,17.50
2023-03-13T03:22:09.581Z,17.52
2023-03-13T03:22:41.051Z,17.52
2023-03-13T03:23:12.468Z,17.53
2023-03-13T03:23:43.897Z,17.52
2023-03-13T03:24:15.410Z,17.49
2023-03-13T03:24:46.813Z,17.51
2023-03-13T03:25:18.204Z,17.50
2023-03-13T03:25:49.627Z,17.50
2023-03-13T03:26:21.062Z,17.48
2023-03-13T03:26:52.491Z,17.50
2023-03-13T03:27:23.901Z,17.49
2023-03-13T03:27:55.311Z,17.47
2023-03-13T03:28:26.723Z,17.47
2023-03-13T03:28:58.111Z,17.48
2023-03-13T03:29:29.506Z,17.46
2023-03-13T03:30:00.926Z,17.48
2023-03-13T03:30:32.352Z,17.47
2023-03-13T03:31:03.759Z,17.48
2023-03-13T03:31:35.213Z,17.48
2023-03-13T03:32:06.696Z,17.48
2023-03-13T03:32:38.164Z,17.46
2023-03-13T03:33:09.599Z,17.46
2023-03-13T03:33:40.997Z,17.47
2023-03-13T03:34:12.419Z,17.46
2023-03-13T03:34:43.839Z,17.47
2023-03-13T03:35:15.252Z,17.46
2023-03-13T03:35:46.698Z,17.45
2023-03-13T03:36:18.133Z,17.47
2023-03-13T03:36:49.580Z,17.47
2023-03-13T03:37:20.999Z,17.46
2023-03-13T03:37:52.415Z,17.45
2023-03-13T03:38:23.852Z,17.45
2023-03-13T03:38:55.278Z,17.44
2023-03-13T03:39:26.687Z,17.45
2023-03-13T03:39:58.097Z,17.43
2023-03-13T03:40:29.499Z,17.46
2023-03-13T03:41:00.914Z,17.44
2023-03-13T03:41:32.353Z,17.45
2023-03-13T03:42:03.788Z,17.45
2023-03-13T03:42:35.229Z,17.43
2023-03-13T03:43:06.633Z,17.42
2023-03-13T03:43:38.052Z,17.42
2023-03-13T03:44:09.481Z,17.46
2023-03-13T03:44:40.884Z,17.43
2023-03-13T03:45:12.275Z,17.42
2023-03-13T03:45:43.724Z,17.39
2023-03-13T03:46:15.213Z,17.41
2023-03-13T03:46:46.669Z,17.42
2023-03-13T03:47:18.207Z,17.41
2023-03-13T03:47:49.626Z,17.40
2023-03-13T03:48:21.034Z,17.41
2023-03-13T03:48:52.457Z,17.43
2023-03-13T03:49:23.850Z,17.42
2023-03-13T03:49:55.242Z,17.41
2023-03-13T03:50:26.653Z,17.39
2023-03-13T03:50:58.047Z,17.41
2023-03-13T03:51:29.499Z,17.42
2023-03-13T03:52:00.944Z,17.39
2023-03-13T03:52:32.416Z,17.38
2023-03-13T03:53:03.831Z,17.37
2023-03-13T03:53:35.230Z,17.38
2023-03-13T03:54:06.635Z,17.39
2023-03-13T03:54:38.054Z,17.38
2023-03-13T03:55:09.464Z,17.38
2023-03-13T03:55:40.874Z,17.39
2023-03-13T03:56:12.337Z,17.40
2023-03-13T03:56:43.761Z,17.38
2023-03-13T03:57:15.149Z,17.37
2023-03-13T03:57:46.590Z,17.36
2023-03-13T03:58:18.006Z,17.34
2023-03-13T03:58:49.417Z,17.36
2023-03-13T03:59:20.814Z,17.36
2023-03-13T03:59:52.206Z,17.37
2023-03-13T04:00:23.605Z,17.36
2023-03-13T04:00:55.014Z,17.36
2023-03-13T04:01:26.438Z,17.32
2023-03-13T04:01:57.887Z,17.34
2023-03-13T04:02:29.337Z,17.35
2023-03-13T04:03:00.845Z,17.36
2023-03-13T04:03:32.298Z,17.34
2023-03-13T04:04:03.731Z,17.33
2023-03-13T04:04:35.131Z,17.33
2023-03-13T04:05:06.520Z,17.32
2023-03-13T04:05:37.915Z,17.33
2023-03-13T04:06:09.372Z,17.30
2023-03-13T04:06:40.839Z,17.30
2023-03-13T04:07:12.254Z,17.32
2023-03-13T04:07:43.677Z,17.33
2023-03-13T04:08:15.132Z,17.33
2023-03-13T04:08:46.641Z,17.31
2023-03-13T04:09:18.058Z,17.32
2023-03-13T04:09:49.453Z,17.31
2023-03-13T04:10:20.848Z,17.32
2023-03-13T04:10:52.262Z,17.32
2023-03-13T04:11:23.709Z,17.32
2023-03-13T04:11:55.120Z,17.31
2023-03-13T04:12:26.510Z,17.31
2023-03-13T04:12:57.924Z,17.30
2023-03-13T04:13:29.378Z,17.30
2023-03-13T04:14:00.801Z,17.31
2023-03-13T04:14:32.216Z,17.29
2023-03-13T04:15:03.612Z,17.28
2023-03-13T04:15:35.007Z,17.31
2023-03-13T04:16:06.411Z,17.31
2023-03-13T04:16:37.862Z,17.31
2023-03-13T04:17:09.283Z,17.30
2023-03-13T04:17:40.704Z,17.29
2023-03-13T04:18:12.108Z,17.29
2023-03-13T04:18:43.582Z,17.30
2023-03-13T04:19:14.979Z,17.30
2023-03-13T04:19:46.388Z,17.30
2023-03-13T04:20:17.791Z,17.27
2023-03-13T04:20:49.184Z,17.28
2023-03-13T04:21:20.585Z,17.29
2023-03-13T04:21:51.970Z,17.28
2023-03-13T04:22:23.385Z,17.29
2023-03-13T04:22:54.795Z,17.28
2023-03-13T04:23:26.279Z,17.28
2023-03-13T04:23:57.731Z,17.29
2023-03-13T04:24:29.120Z,17.28
2023-03-13T04:25:00.536Z,17.26
2023-03-13T04:25:31.932Z,17.26
2023-03-13T04:26:03.330Z,17.26
2023-03-13T04:26:34.736Z,17.27
2023-03-13T04:27:06.120Z,17.27
2023-03-13T04:27:37.520Z,17.26
2023-03-13T04:28:08.947Z,17.25
2023-03-13T04:28:40.396Z,17.25
2023-03-13T04:29:11.823Z,17.26
2023-03-13T04:29:43.233Z,17.25
2023-03-13T04:30:15.936Z,17.25
2023-03-13T04:30:49.058Z,17.25
2023-03-13T04:31:20.561Z,17.25
2023-03-13T04:31:51.978Z,17.25
2023-03-13T04:32:23.433Z,17.24
2023-03-13T04:32:54.924Z,17.24
2023-03-13T04:33:26.378Z,17.24
2023-03-13T04:33:57.830Z,17.24
2023-03-13T04:34:29.222Z,17.24
2023-03-13T04:35:00.696Z,17.24
2023-03-13T04:35:32.229Z,17.25
2023-03-13T04:36:03.720Z,17.23
2023-03-13T04:36:35.119Z,17.23
2023-03-13T04:37:06.521Z,17.23
2023-03-13T04:37:37.943Z,17.23
2023-03-13T04:38:09.375Z,17.23
2023-03-13T04:38:40.838Z,17.23
2023-03-13T04:39:12.270Z,17.24
2023-03-13T04:39:43.686Z,17.24
2023-03-13T04:40:15.110Z,17.25
2023-03-13T04:40:46.521Z,17.22
2023-03-13T04:41:17.923Z,17.22
2023-03-13T04:41:49.336Z,17.22
2023-03-13T04:42:20.748Z,17.20
2023-03-13T04:42:52.160Z,17.21
2023-03-13T04:43:23.566Z,17.22
2023-03-13T04:43:54.963Z,17.22
2023-03-13T04:44:26.374Z,17.23
2023-03-13T04:44:57.768Z,17.21
2023-03-13T04:45:29.189Z,17.21
2023-03-13T04:46:00.676Z,17.22
2023-03-13T04:46:32.160Z,17.20
2023-03-13T04:47:03.600Z,17.20
2023-03-13T04:47:34.999Z,17.18
2023-03-13T04:48:06.395Z,17.18
2023-03-13T04:48:37.807Z,17.19
2023-03-13T04:49:09.228Z,17.17
2023-03-13T04:49:40.670Z,17.17
2023-03-13T04:50:12.080Z,17.18
2023-03-13T04:50:43.487Z,17.17
2023-03-13T04:51:14.901Z,17.19
2023-03-13T04:51:46.306Z,17.17
2023-03-13T04:52:17.692Z,17.18
2023-03-13T04:52:49.749Z,17.17
2023-03-13T04:53:21.218Z,17.17
2023-03-13T04:53:52.614Z,17.17
2023-03-13T04:54:24.010Z,17.18
2023-03-13T04:54:55.469Z,17.18
2023-03-13T04:55:26.988Z,17.18
2023-03-13T04:55:58.395Z,17.18
2023-03-13T04:56:42.605Z,17.17
2023-03-13T04:57:14.831Z,17.17
2023-03-13T04:57:46.244Z,17.16
2023-03-13T04:58:17.673Z,17.17
2023-03-13T04:58:49.079Z,17.16
2023-03-13T04:59:20.491Z,17.16
2023-03-13T04:59:51.890Z,17.15
2023-03-13T05:00:23.353Z,17.16
2023-03-13T05:00:54.769Z,17.17
2023-03-13T05:01:26.207Z,17.15
2023-03-13T05:01:57.639Z,17.16
2023-03-13T05:02:29.043Z,17.16
2023-03-13T05:03:00.444Z,17.17
2023-03-13T05:03:31.867Z,17.14
2023-03-13T05:04:03.257Z,17.16
2023-03-13T05:04:34.679Z,17.16
2023-03-13T05:05:06.110Z,17.15
2023-03-13T05:05:37.612Z,17.16
2023-03-13T05:06:09.028Z,17.14
2023-03-13T05:06:40.416Z,17.15
2023-03-13T05:07:11.836Z,17.14
2023-03-13T05:07:43.261Z,17.15
2023-03-13T05:08:14.660Z,17.15
2023-03-13T05:08:46.059Z,17.15
2023-03-13T05:09:17.492Z,17.15
2023-03-13T05:09:48.926Z,17.14
2023-03-13T05:10:20.342Z,17.14
2023-03-13T05:10:51.768Z,17.14
2023-03-13T05:11:23.162Z,17.13
2023-03-13T05:11:56.517Z,17.14
2023-03-13T05:12:29.188Z,17.14
2023-03-13T05:13:00.599Z,17.13
2023-03-13T05:13:32.050Z,17.14
2023-03-13T05:14:03.442Z,17.13
2023-03-13T05:14:34.839Z,17.13
2023-03-13T05:15:06.252Z,17.14
2023-03-13T05:15:37.812Z,17.13
2023-03-13T05:16:09.351Z,17.13
2023-03-13T05:16:40.780Z,17.12
2023-03-13T05:17:12.231Z,17.12
2023-03-13T05:17:43.639Z,17.11
2023-03-13T05:18:15.026Z,17.11
2023-03-13T05:18:46.447Z,17.09
2023-03-13T05:19:17.869Z,17.11
2023-03-13T05:19:49.291Z,17.11
2023-03-13T05:20:20.720Z,17.11
2023-03-13T05:20:52.139Z,17.11
2023-03-13T05:21:23.536Z,17.11
2023-03-13T05:21:54.934Z,17.12
2023-03-13T05:22:26.366Z,17.12
2023-03-13T05:22:57.778Z,17.10
2023-03-13T05:23:29.181Z,17.09
2023-03-13T05:24:00.582Z,17.11
2023-03-13T05:24:31.987Z,17.10
2023-03-13T05:25:03.393Z,17.11
2023-03-13T05:25:34.785Z,17.09
2023-03-13T05:26:06.209Z,17.09
2023-03-13T05:26:37.624Z,17.08
2023-03-13T05:27:09.054Z,17.09
2023-03-13T05:27:40.461Z,17.08
2023-03-13T05:28:11.886Z,17.09
2023-03-13T05:28:43.284Z,17.09
2023-03-13T05:29:14.700Z,17.07
2023-03-13T05:29:46.101Z,17.07
2023-03-13T05:30:17.515Z,17.07
2023-03-13T05:30:48.926Z,17.08
2023-03-13T05:31:20.465Z,17.08
2023-03-13T05:31:51.936Z,17.07
2023-03-13T05:32:23.462Z,17.08
2023-03-13T05:32:55.020Z,17.07
2023-03-13T05:33:26.503Z,17.08
2023-03-13T05:33:57.927Z,17.09
2023-03-13T05:34:29.349Z,17.09
2023-03-13T05:35:00.859Z,17.08
2023-03-13T05:35:32.417Z,17.09
2023-03-13T05:36:03.953Z,17.09
2023-03-13T05:36:35.501Z,17.09
2023-03-13T05:37:07.053Z,17.09
2023-03-13T05:37:40.862Z,17.09
2023-03-13T05:38:12.699Z,17.09
2023-03-13T05:38:44.117Z,17.09
2023-03-13T05:39:15.509Z,17.09
2023-03-13T05:39:46.910Z,17.11
2023-03-13T05:40:18.327Z,17.11
2023-03-13T05:40:49.754Z,17.11
2023-03-13T05:41:21.145Z,17.10
2023-03-13T05:41:52.542Z,17.11
2023-03-13T05:42:23.988Z,17.12
2023-03-13T05:42:55.383Z,17.12
2023-03-13T05:43:26.788Z,17.12
2023-03-13T05:43:58.197Z,17.13
2023-03-13T05:44:29.619Z,17.13
2023-03-13T05:45:01.043Z,17.13
2023-03-13T05:45:32.470Z,17.13
2023-03-13T05:46:03.944Z,17.14
2023-03-13T05:46:35.438Z,17.14
2023-03-13T05:47:06.873Z,17.13
2023-03-13T05:47:38.268Z,17.14
2023-03-13T05:48:09.663Z,17.13
2023-03-13T05:48:41.074Z,17.13
2023-03-13T05:49:12.479Z,17.14
2023-03-13T05:49:43.891Z,17.15
2023-03-13T05:50:15.333Z,17.15
2023-03-13T05:50:46.722Z,17.15
2023-03-13T05:51:18.131Z,17.15
2023-03-13T05:51:49.524Z,17.15
2023-03-13T05:52:21.026Z,17.16
2023-03-13T05:52:52.435Z,17.14
2023-03-13T05:53:23.836Z,17.15
2023-03-13T05:53:55.249Z,17.15
2023-03-13T05:54:26.681Z,17.16
2023-03-13T05:54:58.086Z,17.16
2023-03-13T05:55:29.492Z,17.16
2023-03-13T05:56:00.898Z,17.16
2023-03-13T05:56:32.331Z,17.16
2023-03-13T05:57:03.720Z,17.15
2023-03-13T05:57:35.158Z,17.16
2023-03-13T05:58:06.556Z,17.15
2023-03-13T05:58:37.947Z,17.15
2023-03-13T05:59:09.339Z,17.15
2023-03-13T05:59:40.741Z,17.17
2023-03-13T06:00:12.140Z,17.15
2023-03-13T06:00:43.592Z,17.15
2023-03-13T06:01:15.013Z,17.16
2023-03-13T06:01:46.466Z,17.15
2023-03-13T06:02:17.892Z,17.15
2023-03-13T06:02:49.314Z,17.16
2023-03-13T06:03:20.694Z,17.16
2023-03-13T06:03:52.214Z,17.15
2023-03-13T06:04:23.765Z,17.16
2023-03-13T06:04:55.400Z,17.15
2023-03-13T06:05:26.865Z,17.16
2023-03-13T06:05:58.280Z,17.16
2023-03-13T06:06:29.705Z,17.15
2023-03-13T06:07:01.155Z,17.14
2023-03-13T06:07:32.562Z,17.15
2023-03-13T06:08:03.950Z,17.15
2023-03-13T06:08:35.374Z,17.15
2023-03-13T06:09:06.784Z,17.15
2023-03-13T06:09:38.188Z,17.15
2023-03-13T06:10:09.764Z,17.15
2023-03-13T06:10:41.178Z,17.15
2023-03-13T06:11:12.583Z,17.16
2023-03-13T06:11:43.973Z,17.16
2023-03-13T06:12:15.651Z,17.17
2023-03-13T06:12:47.074Z,17.16
2023-03-13T06:13:20.309Z,17.16
2023-03-13T06:13:51.887Z,17.16
2023-03-13T06:14:23.295Z,17.15
2023-03-13T06:14:54.708Z,17.15
2023-03-13T06:15:26.115Z,17.15
2023-03-13T06:15:57.571Z,17.16
2023-03-13T06:16:29.065Z,17.16
2023-03-13T06:17:00.508Z,17.15
2023-03-13T06:17:31.942Z,17.14
2023-03-13T06:18:03.339Z,17.16
2023-03-13T06:18:34.741Z,17.15
2023-03-13T06:19:06.157Z,17.15
2023-03-13T06:19:37.560Z,17.15
2023-03-13T06:20:08.952Z,17.15
2023-03-13T06:20:42.548Z,17.15
2023-03-13T06:21:14.052Z,17.16
2023-03-13T06:21:45.456Z,17.16
2023-03-13T06:22:16.896Z,17.14
2023-03-13T06:22:48.303Z,17.14
2023-03-13T06:23:19.708Z,17.16
2023-03-13T06:23:51.105Z,17.15
2023-03-13T06:24:22.512Z,17.14
2023-03-13T06:24:53.926Z,17.14
2023-03-13T06:25:25.323Z,17.16
2023-03-13T06:25:56.761Z,17.16
2023-03-13T06:26:28.195Z,17.15
2023-03-13T06:26:59.645Z,17.16
2023-03-13T06:27:31.095Z,17.15
2023-03-13T06:28:02.484Z,17.14
2023-03-13T06:28:33.886Z,17.13
2023-03-13T06:29:05.284Z,17.14
2023-03-13T06:29:36.678Z,17.14
2023-03-13T06:30:08.087Z,17.14
2023-03-13T06:30:39.491Z,17.15
2023-03-13T06:31:10.932Z,17.16
2023-03-13T06:31:42.491Z,17.15
2023-03-13T06:32:14.034Z,17.15
2023-03-13T06:32:45.564Z,17.15
2023-03-13T06:33:17.139Z,17.16
2023-03-13T06:33:49.716Z,17.17
2023-03-13T06:34:22.074Z,17.16
2023-03-13T06:34:53.471Z,17.15
2023-03-13T06:35:24.876Z,17.16
2023-03-13T06:35:57.158Z,17.16
2023-03-13T06:36:28.649Z,17.16
2023-03-13T06:37:00.092Z,17.16
2023-03-13T06:37:31.543Z,17.17
2023-03-13T06:38:02.955Z,17.16
2023-03-13T06:38:34.375Z,17.16
2023-03-13T06:39:05.792Z,17.17
2023-03-13T06:39:37.244Z,17.17
2023-03-13T06:40:08.680Z,17.17
2023-03-13T06:40:40.094Z,17.17
2023-03-13T06:41:11.478Z,17.18
2023-03-13T06:41:42.917Z,17.17
2023-03-13T06:42:14.307Z,17.17
2023-03-13T06:42:45.739Z,17.18
2023-03-13T06:43:17.152Z,17.18
2023-03-13T06:43:48.553Z,17.19
2023-03-13T06:44:19.955Z,17.18
2023-03-13T06:44:51.363Z,17.15
2023-03-13T06:45:22.758Z,17.16